Date,TemperatureHighF,TemperatureAvgF,TemperatureLowF,DewpointHighF,DewpointAvgF,DewpointLowF,HumidityHigh,HumidityAvg,HumidityLow,PressureMaxIn,PressureMinIn,WindSpeedMaxMPH,WindSpeedAvgMPH,GustSpeedMaxMPH,PrecipitationSumIn
2013-4-1,49.0,38.5,32.6,42.9,33.2,18.3,100,83,52,30.00,29.75,15,6,28,0.09
2013-4-2,41.6,33.2,26.7,21.7,18.3,14.3,80,55,38,30.19,29.99,15,7,29,0.00
2013-4-3,42.9,32.3,22.3,21.9,18.6,12.6,88,60,35,30.41,30.19,16,6,28,0.00
2013-4-4,48.7,33.1,18.1,30.9,20.6,14.0,86,63,35,30.41,30.03,10,2,15,0.00
2013-4-5,58.0,44.3,30.8,35.8,29.9,22.6,90,60,38,30.11,29.88,14,5,24,0.00
2013-4-6,58.2,40.7,24.8,32.4,24.4,17.9,89,56,27,30.31,30.11,8,3,13,0.00
2013-4-7,74.0,51.3,34.9,49.4,39.3,29.2,87,66,40,30.15,29.89,13,3,21,0.00
2013-4-8,75.6,58.3,40.4,52.8,48.0,40.1,100,72,42,30.06,29.87,9,2,13,0.00
2013-4-9,83.7,63.9,46.8,59.6,52.9,45.3,97,71,41,30.07,29.89,12,4,19,0.00
2013-4-10,84.7,69.4,51.4,62.3,56.2,49.2,92,65,43,29.94,29.76,21,6,31,0.00
2013-4-11,81.3,64.9,47.5,61.4,55.7,47.5,100,75,46,29.87,29.62,12,3,15,0.00
2013-4-12,69.9,57.0,43.7,60.7,50.6,37.9,100,82,45,29.81,29.56,17,5,28,1.07
2013-4-13,63.4,50.4,40.9,42.7,36.3,31.3,86,60,36,29.97,29.79,19,6,28,0.00
2013-4-14,69.1,51.5,35.1,49.4,39.8,29.0,97,67,39,30.15,29.97,9,3,15,0.00
2013-4-15,62.9,57.1,49.9,55.9,51.9,46.9,100,83,70,30.18,30.06,11,4,16,0.02
2013-4-16,83.7,67.8,54.9,66.3,59.9,54.3,100,78,49,30.19,29.98,22,4,35,0.36
2013-4-17,76.3,64.6,54.3,67.1,60.9,54.3,100,89,67,30.17,30.08,11,3,14,0.01
2013-4-18,82.4,68.6,60.2,69.3,62.3,57.9,96,81,59,30.15,29.85,19,6,28,0.00
2013-4-19,75.7,61.2,48.0,66.8,56.4,39.8,100,85,70,29.86,29.50,20,8,34,0.41
2013-4-20,57.1,46.9,35.8,40.7,33.3,29.4,85,60,39,30.37,29.79,15,8,30,0.00
2013-4-21,55.5,42.7,30.0,37.1,31.3,28.1,94,67,36,30.58,30.37,12,2,16,0.00
2013-4-22,59.1,46.3,32.8,41.0,34.8,29.6,89,66,41,30.53,30.33,11,5,20,0.00
2013-4-23,67.8,50.1,34.5,49.9,41.7,32.9,96,75,47,30.36,30.06,8,3,13,0.00
2013-4-24,80.2,55.6,38.4,65.3,49.6,38.4,100,83,48,30.10,29.68,22,5,37,0.09
2013-4-25,65.1,50.7,38.4,42.0,36.6,31.1,84,61,31,30.31,30.09,11,5,19,0.00
2013-4-26,67.0,50.3,36.1,47.1,39.7,34.9,98,70,39,30.46,30.30,9,2,14,0.00
2013-4-27,73.1,54.5,35.8,52.2,43.4,34.8,98,70,40,30.40,30.19,11,3,15,0.00
2013-4-28,54.5,50.2,41.4,54.5,49.0,41.4,100,96,84,30.21,30.05,8,2,12,0.32
2013-4-29,61.6,55.6,50.1,58.8,54.4,50.1,100,96,87,30.07,29.98,6,2,9,0.09
2013-4-30,63.6,57.1,52.9,59.3,55.8,52.9,100,96,82,30.25,30.06,11,4,15,0.02